createdAt,value
2022-08-26T00:01:02.171Z,100105.98
2022-08-26T00:05:10.746Z,100108.83
2022-08-26T00:09:18.331Z,100105.94
2022-08-26T00:13:26.405Z,100105.16
2022-08-26T00:17:34.342Z,100097.66
2022-08-26T00:21:42.511Z,100092.45
2022-08-26T00:25:50.465Z,100087.00
2022-08-26T00:29:58.258Z,100085.48
2022-08-26T00:34:06.063Z,100083.91
2022-08-26T00:38:14.326Z,100082.89
2022-08-26T00:42:23.718Z,100086.05
2022-08-26T00:46:33.536Z,100084.98
2022-08-26T00:50:43.673Z,100086.93
2022-08-26T00:54:55.992Z,100085.27
2022-08-26T00:59:07.568Z,100086.73
2022-08-26T01:03:15.809Z,100083.31
2022-08-26T01:07:23.422Z,100076.43
2022-08-26T01:11:31.267Z,100072.16
2022-08-26T01:15:44.495Z,100073.73
2022-08-26T01:19:53.924Z,100067.14
2022-08-26T01:24:02.107Z,100067.86
2022-08-26T01:28:14.478Z,100068.41
2022-08-26T01:32:25.949Z,100068.91
2022-08-26T01:36:35.227Z,100068.46
2022-08-26T01:40:44.501Z,100066.39
2022-08-26T01:44:56.087Z,100067.31
2022-08-26T01:49:06.892Z,100072.98
2022-08-26T01:53:21.409Z,100075.61
2022-08-26T01:57:32.210Z,100079.23
2022-08-26T02:01:40.247Z,100081.42
2022-08-26T02:05:51.467Z,100082.40
2022-08-26T02:09:59.772Z,100084.36
2022-08-26T02:14:13.112Z,100082.70
2022-08-26T02:18:21.309Z,100076.70
2022-08-26T02:22:31.995Z,100078.92
2022-08-26T02:26:41.806Z,100072.17
2022-08-26T02:30:50.497Z,100072.82
2022-08-26T02:34:58.665Z,100069.48
2022-08-26T02:39:06.784Z,100070.84
2022-08-26T02:43:14.856Z,100070.23
2022-08-26T02:47:24.905Z,100068.17
2022-08-26T02:51:32.572Z,100066.62
2022-08-26T02:55:42.512Z,100064.41
2022-08-26T02:59:51.041Z,100058.56
2022-08-26T03:03:59.608Z,100056.51
2022-08-26T03:08:07.228Z,100057.98
2022-08-26T03:12:15.068Z,100052.59
2022-08-26T03:16:23.171Z,100050.17
2022-08-26T03:20:31.900Z,100053.46
2022-08-26T03:24:40.257Z,100048.80
2022-08-26T03:29:05.584Z,100047.10
2022-08-26T03:33:14.350Z,100045.98
2022-08-26T03:37:22.415Z,100047.27
2022-08-26T03:41:33.142Z,100052.45
2022-08-26T03:45:41.260Z,100053.19
2022-08-26T03:49:50.711Z,100054.59
2022-08-26T03:54:01.078Z,100055.41
2022-08-26T03:58:10.330Z,100050.52
2022-08-26T04:02:19.520Z,100046.38
2022-08-26T04:06:29.743Z,100041.55
2022-08-26T04:10:40.591Z,100040.58
2022-08-26T04:14:48.663Z,100038.46
2022-08-26T04:18:57.526Z,100039.91
2022-08-26T04:23:05.831Z,100041.66
2022-08-26T04:27:15.241Z,100041.40
2022-08-26T04:31:26.519Z,100042.40
2022-08-26T04:35:38.725Z,100047.42
2022-08-26T04:39:54.361Z,100044.40
2022-08-26T04:44:09.902Z,100049.06
2022-08-26T04:48:18.146Z,100039.59
2022-08-26T04:52:25.918Z,100040.31
2022-08-26T04:56:38.477Z,100042.97
2022-08-26T05:00:49.226Z,100043.16
2022-08-26T05:04:57.297Z,100045.56
2022-08-26T05:09:05.200Z,100048.52
2022-08-26T05:13:15.544Z,100049.15
2022-08-26T05:17:23.828Z,100052.75
2022-08-26T05:21:31.586Z,100051.40
2022-08-26T05:25:42.164Z,100059.23
2022-08-26T05:29:54.353Z,100058.02
2022-08-26T05:34:05.053Z,100058.69
2022-08-26T05:38:15.815Z,100057.99
2022-08-26T05:42:25.416Z,100060.88
2022-08-26T05:46:33.217Z,100064.91
2022-08-26T05:50:47.794Z,100061.40
2022-08-26T05:54:55.741Z,100061.36
2022-08-26T05:59:03.709Z,100060.30
2022-08-26T06:03:14.615Z,100059.79
2022-08-26T06:07:43.772Z,100056.98
2022-08-26T06:11:51.607Z,100057.33
2022-08-26T06:16:00.563Z,100052.50
2022-08-26T06:20:09.807Z,100053.80
2022-08-26T06:24:35.307Z,100053.47
2022-08-26T06:28:45.490Z,100051.08
2022-08-26T06:32:53.502Z,100054.71
2022-08-26T06:37:03.757Z,100055.25
2022-08-26T06:41:12.097Z,100055.70
2022-08-26T06:45:20.027Z,100054.98
2022-08-26T06:49:28.128Z,100049.63
2022-08-26T06:53:37.002Z,100048.38
2022-08-26T06:57:44.888Z,100044.32
2022-08-26T07:01:55.227Z,100049.86
2022-08-26T07:06:07.385Z,100049.14
2022-08-26T07:10:15.782Z,100052.11
2022-08-26T07:14:26.179Z,100051.61
2022-08-26T07:18:34.019Z,100057.00
2022-08-26T07:22:42.563Z,100054.45
2022-08-26T07:26:50.536Z,100052.13
2022-08-26T07:31:00.747Z,100051.82
2022-08-26T07:35:09.928Z,100053.54
2022-08-26T07:39:17.514Z,100049.85
2022-08-26T07:43:25.268Z,100050.49
2022-08-26T07:47:33.429Z,100048.44
2022-08-26T07:51:42.389Z,100049.21
2022-08-26T07:55:50.138Z,100047.23
2022-08-26T07:59:58.505Z,100048.52
2022-08-26T08:04:09.066Z,100052.55
2022-08-26T08:08:27.652Z,100054.32
2022-08-26T08:12:37.347Z,100057.38
2022-08-26T08:16:47.021Z,100061.27
2022-08-26T08:21:21.081Z,100054.52
2022-08-26T08:25:30.917Z,100052.89
2022-08-26T08:29:39.648Z,100054.16
2022-08-26T08:33:48.894Z,100052.68
2022-08-26T08:38:00.129Z,100045.57
2022-08-26T08:42:35.862Z,100039.98
2022-08-26T08:46:44.875Z,100035.98
2022-08-26T08:50:54.036Z,100028.77
2022-08-26T08:55:02.257Z,100027.55
2022-08-26T08:59:16.462Z,100027.64
2022-08-26T09:03:42.847Z,100025.11
2022-08-26T09:07:53.824Z,100021.33
2022-08-26T09:12:04.386Z,100021.48
2022-08-26T09:16:15.404Z,100015.80
2022-08-26T09:20:37.381Z,100018.20
2022-08-26T09:24:48.482Z,100012.94
2022-08-26T09:29:00.915Z,100016.63
2022-08-26T09:33:11.357Z,100015.70
2022-08-26T09:37:40.157Z,100006.86
2022-08-26T09:42:07.172Z,100001.08
2022-08-26T09:46:19.100Z,99996.16
2022-08-26T09:50:30.436Z,99990.65
2022-08-26T09:54:39.288Z,99987.35
2022-08-26T09:58:49.250Z,99985.17
2022-08-26T10:03:08.220Z,99980.80
2022-08-26T10:07:16.621Z,99978.66
2022-08-26T10:11:31.381Z,99974.65
2022-08-26T10:15:50.005Z,99972.00
2022-08-26T10:20:01.580Z,99973.63
2022-08-26T10:24:11.994Z,99969.20
2022-08-26T10:28:27.402Z,99965.01
2022-08-26T10:32:41.502Z,99958.23
2022-08-26T10:37:16.157Z,99953.38
2022-08-26T10:41:25.907Z,99948.91
2022-08-26T10:45:38.568Z,99948.80
2022-08-26T10:49:47.263Z,99948.29
2022-08-26T10:53:58.902Z,99941.75
2022-08-26T10:58:26.396Z,99938.82
2022-08-26T11:02:40.612Z,99931.38
2022-08-26T11:07:35.952Z,99930.59
2022-08-26T11:11:53.777Z,99922.77
2022-08-26T11:16:02.671Z,99920.20
2022-08-26T11:20:14.154Z,99915.56
2022-08-26T11:24:47.638Z,99908.52
2022-08-26T11:28:56.201Z,99901.72
2022-08-26T11:33:03.827Z,99898.08
2022-08-26T11:41:32.001Z,99882.77
2022-08-26T11:45:42.200Z,99878.14
2022-08-26T11:49:49.950Z,99877.59
2022-08-26T11:54:12.873Z,99870.73
2022-08-26T11:58:21.349Z,99865.32
2022-08-26T12:02:30.886Z,99863.31
2022-08-26T12:06:45.696Z,99863.75
2022-08-26T12:11:06.922Z,99860.33
2022-08-26T12:15:19.333Z,99856.66
2022-08-26T12:19:33.016Z,99848.00
2022-08-26T12:23:48.529Z,99847.31
2022-08-26T12:28:09.583Z,99845.59
2022-08-26T12:32:32.250Z,99837.11
2022-08-26T12:36:49.278Z,99831.50
2022-08-26T12:41:10.658Z,99833.48
2022-08-26T12:45:33.535Z,99828.98
2022-08-26T12:49:50.451Z,99828.69
2022-08-26T12:53:59.427Z,99824.28
2022-08-26T12:58:29.752Z,99821.02
2022-08-26T13:02:41.449Z,99816.25
2022-08-26T13:06:49.418Z,99810.33
2022-08-26T13:11:10.669Z,99808.34
2022-08-26T13:15:18.167Z,99797.98
2022-08-26T13:19:27.418Z,99783.29
2022-08-26T13:23:38.386Z,99776.16
2022-08-26T13:27:49.296Z,99770.73
2022-08-26T13:31:58.014Z,99765.17
2022-08-26T13:36:09.250Z,99756.30
2022-08-26T13:40:17.889Z,99750.14
2022-08-26T13:44:25.677Z,99742.81
2022-08-26T13:48:34.164Z,99742.55
2022-08-26T13:52:41.440Z,99736.14
2022-08-26T13:56:49.320Z,99727.84
2022-08-26T14:00:58.212Z,99725.18
2022-08-26T14:05:06.330Z,99721.91
2022-08-26T14:09:14.161Z,99721.51
2022-08-26T14:13:22.657Z,99723.49
2022-08-26T14:17:32.621Z,99726.20
2022-08-26T14:21:41.034Z,99720.39
2022-08-26T14:25:49.046Z,99720.60
2022-08-26T14:29:57.414Z,99719.66
2022-08-26T14:34:09.775Z,99724.18
2022-08-26T14:38:17.993Z,99719.80
2022-08-26T14:42:31.507Z,99717.41
2022-08-26T14:46:43.993Z,99714.89
2022-08-26T14:50:52.103Z,99712.39
2022-08-26T14:55:02.931Z,99713.06
2022-08-26T14:59:12.120Z,99705.27
2022-08-26T15:03:21.250Z,99701.70
2022-08-26T15:07:31.409Z,99698.95
2022-08-26T15:11:39.820Z,99690.45
2022-08-26T15:15:48.511Z,99691.91
2022-08-26T15:19:56.211Z,99690.52
2022-08-26T15:24:04.619Z,99694.53
2022-08-26T15:28:12.489Z,99685.36
2022-08-26T15:32:20.144Z,99675.49
2022-08-26T15:36:30.461Z,99670.96
2022-08-26T15:40:40.462Z,99673.34
2022-08-26T15:44:50.528Z,99678.66
2022-08-26T15:48:58.622Z,99680.88
2022-08-26T15:53:08.145Z,99678.30
2022-08-26T15:57:18.701Z,99670.32
2022-08-26T16:01:29.104Z,99659.36
2022-08-26T16:05:39.665Z,99652.74
2022-08-26T16:09:49.202Z,99651.80
2022-08-26T16:14:01.788Z,99649.98
2022-08-26T16:18:11.670Z,99653.17
2022-08-26T16:22:19.825Z,99654.04
2022-08-26T16:26:29.965Z,99651.08
2022-08-26T16:30:38.061Z,99654.83
2022-08-26T16:34:56.410Z,99650.73
2022-08-26T16:39:05.466Z,99646.38
2022-08-26T16:43:15.206Z,99641.91
2022-08-26T16:47:23.579Z,99644.15
2022-08-26T16:51:32.764Z,99642.65
2022-08-26T16:55:49.951Z,99642.58
2022-08-26T16:59:57.917Z,99644.09
2022-08-26T17:04:06.492Z,99645.62
2022-08-26T17:08:21.846Z,99648.64
2022-08-26T17:12:38.552Z,99646.92
2022-08-26T17:16:47.320Z,99645.85
2022-08-26T17:20:56.743Z,99644.64
2022-08-26T17:25:05.809Z,99639.52
2022-08-26T17:29:14.070Z,99638.83
2022-08-26T17:33:24.421Z,99637.02
2022-08-26T17:37:34.843Z,99641.23
2022-08-26T17:41:45.228Z,99654.14
2022-08-26T17:45:53.030Z,99655.52
2022-08-26T17:50:01.729Z,99651.87
2022-08-26T17:54:09.508Z,99653.95
2022-08-26T17:58:17.347Z,99650.96
2022-08-26T18:02:25.787Z,99646.73
2022-08-26T18:06:33.972Z,99649.38
2022-08-26T18:10:41.565Z,99648.55
2022-08-26T18:14:51.195Z,99647.88
2022-08-26T18:19:00.361Z,99646.47
2022-08-26T18:23:09.913Z,99645.61
2022-08-26T18:27:18.252Z,99655.11
2022-08-26T18:31:27.027Z,99651.48
2022-08-26T18:35:35.267Z,99650.56
2022-08-26T18:39:43.308Z,99662.91
2022-08-26T18:43:51.842Z,99674.40
2022-08-26T18:48:00.078Z,99682.54
2022-08-26T18:52:08.286Z,99689.77
2022-08-26T18:56:18.482Z,99690.19
2022-08-26T19:00:26.573Z,99685.23
2022-08-26T19:04:34.846Z,99688.69
2022-08-26T19:08:44.540Z,99697.02
2022-08-26T19:12:54.516Z,99702.34
2022-08-26T19:17:05.891Z,99709.41
2022-08-26T19:21:13.504Z,99711.09
2022-08-26T19:25:22.922Z,99717.21
2022-08-26T19:29:35.292Z,99718.44
2022-08-26T19:33:45.591Z,99721.09
2022-08-26T19:37:53.104Z,99723.66
2022-08-26T19:42:01.103Z,99730.99
2022-08-26T19:46:14.812Z,99725.59
2022-08-26T19:50:22.896Z,99718.68
2022-08-26T19:54:31.275Z,99720.62
2022-08-26T19:58:40.761Z,99728.84
2022-08-26T20:02:48.960Z,99731.69
2022-08-26T20:06:57.771Z,99730.84
2022-08-26T20:11:09.296Z,99734.80
2022-08-26T20:15:18.242Z,99728.52
2022-08-26T20:19:43.532Z,99724.70
2022-08-26T20:23:52.596Z,99730.06
2022-08-26T20:28:01.814Z,99740.16
2022-08-26T20:32:12.382Z,99764.29
2022-08-26T20:36:21.618Z,99774.77
2022-08-26T20:40:29.441Z,99760.98
2022-08-26T20:44:38.052Z,99755.96
2022-08-26T20:48:51.199Z,99749.92
2022-08-26T20:52:59.602Z,99750.05
2022-08-26T20:57:07.776Z,99744.02
2022-08-26T21:01:22.821Z,99739.05
2022-08-26T21:05:32.309Z,99742.20
2022-08-26T21:09:40.241Z,99742.05
2022-08-26T21:14:06.969Z,99745.09
2022-08-26T21:18:18.973Z,99744.10
2022-08-26T21:22:27.193Z,99736.02
2022-08-26T21:26:35.278Z,99727.68
2022-08-26T21:30:43.576Z,99724.59
2022-08-26T21:34:51.391Z,99719.39
2022-08-26T21:39:00.239Z,99716.76
2022-08-26T21:43:09.009Z,99709.17
2022-08-26T21:47:22.367Z,99707.34
2022-08-26T21:51:32.430Z,99705.60
2022-08-26T21:55:42.687Z,99702.95
2022-08-26T21:59:50.632Z,99688.09
2022-08-26T22:03:58.782Z,99677.17
2022-08-26T22:08:06.979Z,99682.94
2022-08-26T22:12:18.312Z,99686.76
2022-08-26T22:16:28.803Z,99694.60
2022-08-26T22:20:38.456Z,99696.11
2022-08-26T22:24:47.363Z,99698.08
2022-08-26T22:28:58.760Z,99698.49
2022-08-26T22:33:08.552Z,99693.80
2022-08-26T22:37:17.115Z,99697.21
2022-08-26T22:41:25.055Z,99698.01
2022-08-26T22:45:33.840Z,99696.36
2022-08-26T22:49:42.114Z,99687.11
2022-08-26T22:53:50.182Z,99682.05
2022-08-26T22:57:58.397Z,99678.95
2022-08-26T23:02:06.582Z,99687.23
2022-08-26T23:06:16.929Z,99689.03
2022-08-26T23:10:25.506Z,99683.52
2022-08-26T23:14:35.508Z,99682.95
2022-08-26T23:18:43.596Z,99693.13
2022-08-26T23:22:51.629Z,99699.59
2022-08-26T23:26:59.284Z,99695.92
2022-08-26T23:31:07.949Z,99691.41
2022-08-26T23:35:22.280Z,99695.01
2022-08-26T23:39:30.059Z,99697.79
2022-08-26T23:43:38.102Z,99686.45
2022-08-26T23:47:47.659Z,99682.64
2022-08-26T23:52:13.306Z,99681.17
2022-08-26T23:56:21.490Z,99680.65
